sensor_id;sensor_type;location;lat;lon;timestamp;P1;durP1;ratioP1;P2;durP2;ratioP2
549;SDS011;20066;48.764;9.176;2022-12-13T00:01:26;40.95;;;21.80;;
549;SDS011;20066;48.764;9.176;2022-12-13T00:03:55;42.53;;;21.38;;
549;SDS011;20066;48.764;9.176;2022-12-13T00:06:27;43.13;;;20.83;;
549;SDS011;20066;48.764;9.176;2022-12-13T00:08:56;48.13;;;22.92;;
549;SDS011;20066;48.764;9.176;2022-12-13T00:11:26;42.35;;;21.42;;
549;SDS011;20066;48.764;9.176;2022-12-13T00:13:54;43.55;;;21.10;;
549;SDS011;20066;48.764;9.176;2022-12-13T00:16:23;45.38;;;22.85;;
549;SDS011;20066;48.764;9.176;2022-12-13T00:18:52;48.85;;;22.40;;
549;SDS011;20066;48.764;9.176;2022-12-13T00:21:22;41.60;;;22.02;;
549;SDS011;20066;48.764;9.176;2022-12-13T00:23:52;39.80;;;22.40;;
549;SDS011;20066;48.764;9.176;2022-12-13T00:26:21;42.08;;;21.23;;
549;SDS011;20066;48.764;9.176;2022-12-13T00:28:51;42.10;;;22.70;;
549;SDS011;20066;48.764;9.176;2022-12-13T00:31:20;45.92;;;24.45;;
549;SDS011;20066;48.764;9.176;2022-12-13T00:34:09;41.90;;;21.50;;
549;SDS011;20066;48.764;9.176;2022-12-13T00:36:36;42.88;;;21.13;;
549;SDS011;20066;48.764;9.176;2022-12-13T00:39:04;44.53;;;21.67;;
549;SDS011;20066;48.764;9.176;2022-12-13T00:41:33;42.40;;;20.95;;
549;SDS011;20066;48.764;9.176;2022-12-13T00:44:03;44.83;;;21.35;;
549;SDS011;20066;48.764;9.176;2022-12-13T00:46:31;38.58;;;19.65;;
549;SDS011;20066;48.764;9.176;2022-12-13T00:48:59;42.95;;;20.98;;
549;SDS011;20066;48.764;9.176;2022-12-13T00:51:28;43.15;;;21.27;;
549;SDS011;20066;48.764;9.176;2022-12-13T00:53:58;39.17;;;20.92;;
549;SDS011;20066;48.764;9.176;2022-12-13T00:56:27;39.83;;;21.00;;
549;SDS011;20066;48.764;9.176;2022-12-13T00:58:57;45.65;;;22.98;;
549;SDS011;20066;48.764;9.176;2022-12-13T01:01:27;37.67;;;21.00;;
549;SDS011;20066;48.764;9.176;2022-12-13T01:03:57;38.83;;;21.77;;
549;SDS011;20066;48.764;9.176;2022-12-13T01:06:28;39.58;;;21.10;;
549;SDS011;20066;48.764;9.176;2022-12-13T01:08:59;41.45;;;21.80;;
549;SDS011;20066;48.764;9.176;2022-12-13T01:11:27;38.85;;;21.48;;
549;SDS011;20066;48.764;9.176;2022-12-13T01:13:55;44.08;;;22.33;;
549;SDS011;20066;48.764;9.176;2022-12-13T01:16:22;43.92;;;22.33;;
549;SDS011;20066;48.764;9.176;2022-12-13T01:18:52;42.67;;;21.42;;
549;SDS011;20066;48.764;9.176;2022-12-13T01:21:19;41.28;;;20.88;;
549;SDS011;20066;48.764;9.176;2022-12-13T01:23:48;42.30;;;20.23;;
549;SDS011;20066;48.764;9.176;2022-12-13T01:26:16;38.75;;;20.88;;
549;SDS011;20066;48.764;9.176;2022-12-13T01:28:45;45.20;;;22.90;;
549;SDS011;20066;48.764;9.176;2022-12-13T01:31:14;42.50;;;22.15;;
549;SDS011;20066;48.764;9.176;2022-12-13T01:33:43;40.65;;;22.30;;
549;SDS011;20066;48.764;9.176;2022-12-13T01:36:14;41.65;;;21.63;;
549;SDS011;20066;48.764;9.176;2022-12-13T01:38:43;45.17;;;22.35;;
549;SDS011;20066;48.764;9.176;2022-12-13T01:41:12;45.15;;;22.02;;
549;SDS011;20066;48.764;9.176;2022-12-13T01:43:50;40.10;;;21.77;;
549;SDS011;20066;48.764;9.176;2022-12-13T01:46:21;41.92;;;21.52;;
549;SDS011;20066;48.764;9.176;2022-12-13T01:48:51;45.58;;;20.52;;
549;SDS011;20066;48.764;9.176;2022-12-13T01:51:26;47.40;;;23.00;;
549;SDS011;20066;48.764;9.176;2022-12-13T01:53:58;46.55;;;22.10;;
549;SDS011;20066;48.764;9.176;2022-12-13T01:56:30;53.08;;;22.40;;
549;SDS011;20066;48.764;9.176;2022-12-13T01:59:02;47.47;;;22.17;;
549;SDS011;20066;48.764;9.176;2022-12-13T02:01:33;44.80;;;21.88;;
549;SDS011;20066;48.764;9.176;2022-12-13T02:04:02;46.38;;;22.92;;
549;SDS011;20066;48.764;9.176;2022-12-13T02:06:33;43.70;;;22.65;;
549;SDS011;20066;48.764;9.176;2022-12-13T02:09:03;39.33;;;21.67;;
549;SDS011;20066;48.764;9.176;2022-12-13T02:11:32;44.60;;;22.30;;
549;SDS011;20066;48.764;9.176;2022-12-13T02:14:04;41.83;;;22.10;;
549;SDS011;20066;48.764;9.176;2022-12-13T02:16:36;43.72;;;22.92;;
549;SDS011;20066;48.764;9.176;2022-12-13T02:22:28;42.15;;;22.63;;
549;SDS011;20066;48.764;9.176;2022-12-13T02:25:19;39.28;;;21.05;;
549;SDS011;20066;48.764;9.176;2022-12-13T02:28:09;43.55;;;21.70;;
549;SDS011;20066;48.764;9.176;2022-12-13T02:30:59;44.03;;;22.35;;
549;SDS011;20066;48.764;9.176;2022-12-13T02:33:37;40.78;;;20.90;;
549;SDS011;20066;48.764;9.176;2022-12-13T02:36:16;49.25;;;21.42;;
549;SDS011;20066;48.764;9.176;2022-12-13T02:38:48;44.90;;;22.67;;
549;SDS011;20066;48.764;9.176;2022-12-13T02:41:23;46.78;;;22.60;;
549;SDS011;20066;48.764;9.176;2022-12-13T02:43:55;47.65;;;23.45;;
549;SDS011;20066;48.764;9.176;2022-12-13T02:46:30;41.33;;;22.45;;
549;SDS011;20066;48.764;9.176;2022-12-13T02:49:01;49.42;;;23.85;;
549;SDS011;20066;48.764;9.176;2022-12-13T02:51:31;44.10;;;22.38;;
549;SDS011;20066;48.764;9.176;2022-12-13T02:54:01;46.13;;;23.05;;
549;SDS011;20066;48.764;9.176;2022-12-13T02:56:29;38.97;;;21.77;;
549;SDS011;20066;48.764;9.176;2022-12-13T02:58:57;44.17;;;22.63;;
549;SDS011;20066;48.764;9.176;2022-12-13T03:01:34;44.05;;;23.25;;
549;SDS011;20066;48.764;9.176;2022-12-13T03:04:17;43.17;;;22.80;;
549;SDS011;20066;48.764;9.176;2022-12-13T03:06:59;43.17;;;22.92;;
549;SDS011;20066;48.764;9.176;2022-12-13T03:09:38;54.05;;;23.23;;
549;SDS011;20066;48.764;9.176;2022-12-13T03:12:20;40.30;;;22.10;;
549;SDS011;20066;48.764;9.176;2022-12-13T03:15:15;47.22;;;23.20;;
549;SDS011;20066;48.764;9.176;2022-12-13T03:17:50;44.85;;;21.85;;
549;SDS011;20066;48.764;9.176;2022-12-13T03:20:22;45.13;;;21.23;;
549;SDS011;20066;48.764;9.176;2022-12-13T03:22:52;46.88;;;23.23;;
549;SDS011;20066;48.764;9.176;2022-12-13T03:25:22;54.83;;;23.60;;
549;SDS011;20066;48.764;9.176;2022-12-13T03:27:57;48.67;;;22.58;;
549;SDS011;20066;48.764;9.176;2022-12-13T03:30:28;46.95;;;23.55;;
549;SDS011;20066;48.764;9.176;2022-12-13T03:32:58;51.47;;;23.40;;
549;SDS011;20066;48.764;9.176;2022-12-13T03:35:26;47.35;;;22.48;;
549;SDS011;20066;48.764;9.176;2022-12-13T03:37:59;53.60;;;24.20;;
549;SDS011;20066;48.764;9.176;2022-12-13T03:40:28;41.92;;;22.38;;
549;SDS011;20066;48.764;9.176;2022-12-13T03:42:56;50.03;;;24.08;;
549;SDS011;20066;48.764;9.176;2022-12-13T03:45:24;47.45;;;24.88;;
549;SDS011;20066;48.764;9.176;2022-12-13T03:47:53;45.63;;;23.20;;
549;SDS011;20066;48.764;9.176;2022-12-13T03:50:22;44.97;;;22.95;;
549;SDS011;20066;48.764;9.176;2022-12-13T03:52:56;53.28;;;24.33;;
549;SDS011;20066;48.764;9.176;2022-12-13T03:55:24;43.65;;;20.60;;
549;SDS011;20066;48.764;9.176;2022-12-13T03:57:52;43.22;;;21.77;;
549;SDS011;20066;48.764;9.176;2022-12-13T04:00:20;44.92;;;21.90;;
549;SDS011;20066;48.764;9.176;2022-12-13T04:02:48;43.45;;;20.48;;
549;SDS011;20066;48.764;9.176;2022-12-13T04:05:16;44.78;;;22.38;;
549;SDS011;20066;48.764;9.176;2022-12-13T04:07:45;46.33;;;22.60;;
549;SDS011;20066;48.764;9.176;2022-12-13T04:10:14;46.60;;;22.13;;
549;SDS011;20066;48.764;9.176;2022-12-13T04:12:51;41.80;;;20.73;;
549;SDS011;20066;48.764;9.176;2022-12-13T04:15:37;38.80;;;20.75;;
549;SDS011;20066;48.764;9.176;2022-12-13T04:18:05;43.03;;;21.65;;
549;SDS011;20066;48.764;9.176;2022-12-13T04:20:33;46.40;;;23.52;;
549;SDS011;20066;48.764;9.176;2022-12-13T04:23:03;47.65;;;23.23;;
549;SDS011;20066;48.764;9.176;2022-12-13T04:25:35;44.50;;;20.90;;
549;SDS011;20066;48.764;9.176;2022-12-13T04:28:03;37.80;;;18.45;;
549;SDS011;20066;48.764;9.176;2022-12-13T04:30:31;40.08;;;20.40;;
549;SDS011;20066;48.764;9.176;2022-12-13T04:32:59;40.85;;;20.35;;
549;SDS011;20066;48.764;9.176;2022-12-13T04:35:27;43.38;;;20.92;;
549;SDS011;20066;48.764;9.176;2022-12-13T04:37:55;43.22;;;21.30;;
549;SDS011;20066;48.764;9.176;2022-12-13T04:40:24;49.47;;;23.17;;
549;SDS011;20066;48.764;9.176;2022-12-13T04:42:52;48.65;;;23.10;;
549;SDS011;20066;48.764;9.176;2022-12-13T04:45:20;45.92;;;22.90;;
549;SDS011;20066;48.764;9.176;2022-12-13T04:47:49;38.90;;;20.02;;
549;SDS011;20066;48.764;9.176;2022-12-13T04:50:17;45.30;;;21.90;;
549;SDS011;20066;48.764;9.176;2022-12-13T04:52:45;40.83;;;21.48;;
549;SDS011;20066;48.764;9.176;2022-12-13T04:55:12;41.83;;;20.80;;
549;SDS011;20066;48.764;9.176;2022-12-13T04:57:41;44.42;;;21.40;;
549;SDS011;20066;48.764;9.176;2022-12-13T05:00:10;41.00;;;22.50;;
549;SDS011;20066;48.764;9.176;2022-12-13T05:02:39;42.28;;;21.65;;
549;SDS011;20066;48.764;9.176;2022-12-13T05:05:08;44.17;;;21.13;;
549;SDS011;20066;48.764;9.176;2022-12-13T05:07:36;40.50;;;21.30;;
549;SDS011;20066;48.764;9.176;2022-12-13T05:10:08;43.45;;;22.38;;
549;SDS011;20066;48.764;9.176;2022-12-13T05:12:37;43.80;;;21.67;;
549;SDS011;20066;48.764;9.176;2022-12-13T05:15:06;51.72;;;21.45;;
549;SDS011;20066;48.764;9.176;2022-12-13T05:17:34;38.22;;;20.80;;
549;SDS011;20066;48.764;9.176;2022-12-13T05:20:02;44.58;;;23.50;;
549;SDS011;20066;48.764;9.176;2022-12-13T05:22:31;43.22;;;21.23;;
549;SDS011;20066;48.764;9.176;2022-12-13T05:24:58;49.63;;;22.25;;
549;SDS011;20066;48.764;9.176;2022-12-13T05:27:27;46.17;;;22.23;;
549;SDS011;20066;48.764;9.176;2022-12-13T05:29:55;44.42;;;21.67;;
549;SDS011;20066;48.764;9.176;2022-12-13T05:32:31;46.38;;;21.65;;
549;SDS011;20066;48.764;9.176;2022-12-13T05:35:09;41.30;;;22.10;;
549;SDS011;20066;48.764;9.176;2022-12-13T05:37:38;46.35;;;20.98;;
549;SDS011;20066;48.764;9.176;2022-12-13T05:40:15;50.08;;;23.27;;
549;SDS011;20066;48.764;9.176;2022-12-13T05:42:43;45.75;;;22.55;;
549;SDS011;20066;48.764;9.176;2022-12-13T05:45:11;55.60;;;21.67;;
549;SDS011;20066;48.764;9.176;2022-12-13T05:47:41;36.28;;;19.65;;
549;SDS011;20066;48.764;9.176;2022-12-13T05:50:09;43.17;;;22.05;;
549;SDS011;20066;48.764;9.176;2022-12-13T05:52:37;53.92;;;22.90;;
549;SDS011;20066;48.764;9.176;2022-12-13T05:55:05;50.55;;;21.60;;
549;SDS011;20066;48.764;9.176;2022-12-13T05:57:33;46.53;;;21.33;;
549;SDS011;20066;48.764;9.176;2022-12-13T06:00:02;47.50;;;22.45;;
549;SDS011;20066;48.764;9.176;2022-12-13T06:02:54;43.50;;;21.25;;
549;SDS011;20066;48.764;9.176;2022-12-13T06:05:25;45.42;;;23.35;;
549;SDS011;20066;48.764;9.176;2022-12-13T06:07:53;41.50;;;21.55;;
549;SDS011;20066;48.764;9.176;2022-12-13T06:10:24;41.35;;;21.70;;
549;SDS011;20066;48.764;9.176;2022-12-13T06:13:00;43.13;;;20.70;;
549;SDS011;20066;48.764;9.176;2022-12-13T06:15:48;38.75;;;20.50;;
549;SDS011;20066;48.764;9.176;2022-12-13T06:18:18;46.05;;;20.98;;
549;SDS011;20066;48.764;9.176;2022-12-13T06:20:54;45.58;;;20.02;;
549;SDS011;20066;48.764;9.176;2022-12-13T06:23:22;42.10;;;21.48;;
549;SDS011;20066;48.764;9.176;2022-12-13T06:25:50;40.33;;;19.65;;
549;SDS011;20066;48.764;9.176;2022-12-13T06:28:18;40.55;;;20.30;;
549;SDS011;20066;48.764;9.176;2022-12-13T06:30:46;44.70;;;21.50;;
549;SDS011;20066;48.764;9.176;2022-12-13T06:33:18;50.40;;;21.77;;
549;SDS011;20066;48.764;9.176;2022-12-13T06:35:48;41.88;;;20.38;;
549;SDS011;20066;48.764;9.176;2022-12-13T06:38:17;41.53;;;21.05;;
549;SDS011;20066;48.764;9.176;2022-12-13T06:41:05;41.80;;;19.95;;
549;SDS011;20066;48.764;9.176;2022-12-13T06:43:34;38.78;;;20.45;;
549;SDS011;20066;48.764;9.176;2022-12-13T06:46:02;44.13;;;20.13;;
549;SDS011;20066;48.764;9.176;2022-12-13T06:48:33;46.38;;;21.27;;
549;SDS011;20066;48.764;9.176;2022-12-13T06:51:00;44.83;;;20.27;;
549;SDS011;20066;48.764;9.176;2022-12-13T06:53:29;44.70;;;19.75;;
549;SDS011;20066;48.764;9.176;2022-12-13T06:56:01;37.65;;;19.15;;
549;SDS011;20066;48.764;9.176;2022-12-13T06:58:29;46.85;;;21.20;;
549;SDS011;20066;48.764;9.176;2022-12-13T07:01:01;41.50;;;21.05;;
549;SDS011;20066;48.764;9.176;2022-12-13T07:03:30;44.97;;;22.15;;
549;SDS011;20066;48.764;9.176;2022-12-13T07:06:00;41.25;;;20.30;;
549;SDS011;20066;48.764;9.176;2022-12-13T07:08:32;43.13;;;21.20;;
549;SDS011;20066;48.764;9.176;2022-12-13T07:10:59;43.67;;;22.48;;
549;SDS011;20066;48.764;9.176;2022-12-13T07:13:27;45.00;;;21.60;;
549;SDS011;20066;48.764;9.176;2022-12-13T07:15:56;39.72;;;19.63;;
549;SDS011;20066;48.764;9.176;2022-12-13T07:18:26;41.92;;;21.05;;
549;SDS011;20066;48.764;9.176;2022-12-13T07:20:55;42.00;;;19.65;;
549;SDS011;20066;48.764;9.176;2022-12-13T07:23:24;44.88;;;21.00;;
549;SDS011;20066;48.764;9.176;2022-12-13T07:25:52;40.47;;;19.80;;
549;SDS011;20066;48.764;9.176;2022-12-13T07:28:20;37.30;;;18.20;;
549;SDS011;20066;48.764;9.176;2022-12-13T07:30:48;35.15;;;16.08;;
549;SDS011;20066;48.764;9.176;2022-12-13T07:33:16;34.80;;;17.17;;
549;SDS011;20066;48.764;9.176;2022-12-13T07:35:47;43.08;;;17.10;;
549;SDS011;20066;48.764;9.176;2022-12-13T07:38:20;48.38;;;22.27;;
549;SDS011;20066;48.764;9.176;2022-12-13T07:40:50;49.80;;;22.35;;
549;SDS011;20066;48.764;9.176;2022-12-13T07:43:17;45.95;;;21.30;;
549;SDS011;20066;48.764;9.176;2022-12-13T07:45:46;67.30;;;22.35;;
549;SDS011;20066;48.764;9.176;2022-12-13T07:48:13;50.35;;;21.73;;
549;SDS011;20066;48.764;9.176;2022-12-13T07:50:41;58.80;;;24.27;;
549;SDS011;20066;48.764;9.176;2022-12-13T07:53:09;49.33;;;23.02;;
549;SDS011;20066;48.764;9.176;2022-12-13T07:55:37;53.08;;;22.65;;
549;SDS011;20066;48.764;9.176;2022-12-13T07:58:07;54.47;;;22.52;;
549;SDS011;20066;48.764;9.176;2022-12-13T08:00:36;53.00;;;22.95;;
549;SDS011;20066;48.764;9.176;2022-12-13T08:03:05;48.33;;;21.38;;
549;SDS011;20066;48.764;9.176;2022-12-13T08:05:37;41.53;;;21.23;;
549;SDS011;20066;48.764;9.176;2022-12-13T08:08:05;46.95;;;21.30;;
549;SDS011;20066;48.764;9.176;2022-12-13T08:10:35;48.25;;;22.27;;
549;SDS011;20066;48.764;9.176;2022-12-13T08:13:03;39.88;;;21.27;;
549;SDS011;20066;48.764;9.176;2022-12-13T08:15:33;41.38;;;20.95;;
549;SDS011;20066;48.764;9.176;2022-12-13T08:18:01;47.50;;;22.50;;
549;SDS011;20066;48.764;9.176;2022-12-13T08:20:29;41.00;;;20.98;;
549;SDS011;20066;48.764;9.176;2022-12-13T08:22:57;48.80;;;22.38;;
549;SDS011;20066;48.764;9.176;2022-12-13T08:25:28;44.75;;;22.05;;
549;SDS011;20066;48.764;9.176;2022-12-13T08:27:56;43.35;;;21.80;;
549;SDS011;20066;48.764;9.176;2022-12-13T08:30:27;50.88;;;21.98;;
549;SDS011;20066;48.764;9.176;2022-12-13T08:32:57;46.72;;;22.35;;
549;SDS011;20066;48.764;9.176;2022-12-13T08:35:30;58.92;;;24.02;;
549;SDS011;20066;48.764;9.176;2022-12-13T08:38:00;50.10;;;22.80;;
549;SDS011;20066;48.764;9.176;2022-12-13T08:40:28;46.78;;;20.77;;
549;SDS011;20066;48.764;9.176;2022-12-13T08:42:55;42.90;;;20.65;;
549;SDS011;20066;48.764;9.176;2022-12-13T08:45:23;49.92;;;21.63;;
549;SDS011;20066;48.764;9.176;2022-12-13T08:47:52;40.70;;;19.73;;
549;SDS011;20066;48.764;9.176;2022-12-13T08:50:22;52.58;;;21.35;;
549;SDS011;20066;48.764;9.176;2022-12-13T08:52:50;40.30;;;19.77;;
549;SDS011;20066;48.764;9.176;2022-12-13T08:55:18;51.75;;;23.67;;
549;SDS011;20066;48.764;9.176;2022-12-13T08:57:57;38.38;;;20.40;;
549;SDS011;20066;48.764;9.176;2022-12-13T09:00:26;45.33;;;22.70;;
549;SDS011;20066;48.764;9.176;2022-12-13T09:03:00;48.50;;;20.38;;
549;SDS011;20066;48.764;9.176;2022-12-13T09:05:30;47.83;;;23.00;;
549;SDS011;20066;48.764;9.176;2022-12-13T09:08:00;45.05;;;20.77;;
549;SDS011;20066;48.764;9.176;2022-12-13T09:10:54;59.67;;;22.23;;
549;SDS011;20066;48.764;9.176;2022-12-13T09:13:24;44.88;;;22.65;;
549;SDS011;20066;48.764;9.176;2022-12-13T09:15:57;43.85;;;21.60;;
549;SDS011;20066;48.764;9.176;2022-12-13T09:18:27;40.17;;;21.48;;
549;SDS011;20066;48.764;9.176;2022-12-13T09:21:06;41.03;;;21.27;;
549;SDS011;20066;48.764;9.176;2022-12-13T09:23:37;41.42;;;19.92;;
549;SDS011;20066;48.764;9.176;2022-12-13T09:26:12;44.03;;;21.17;;
549;SDS011;20066;48.764;9.176;2022-12-13T09:28:42;44.90;;;20.38;;
549;SDS011;20066;48.764;9.176;2022-12-13T09:31:10;38.88;;;18.67;;
549;SDS011;20066;48.764;9.176;2022-12-13T09:33:40;44.75;;;19.88;;
549;SDS011;20066;48.764;9.176;2022-12-13T09:36:11;37.35;;;18.65;;
549;SDS011;20066;48.764;9.176;2022-12-13T09:38:40;37.13;;;17.90;;
549;SDS011;20066;48.764;9.176;2022-12-13T09:41:12;35.13;;;18.15;;
549;SDS011;20066;48.764;9.176;2022-12-13T09:43:55;36.65;;;17.10;;
549;SDS011;20066;48.764;9.176;2022-12-13T09:46:27;38.92;;;17.08;;
549;SDS011;20066;48.764;9.176;2022-12-13T09:49:11;30.33;;;14.85;;
549;SDS011;20066;48.764;9.176;2022-12-13T09:51:51;27.08;;;13.98;;
549;SDS011;20066;48.764;9.176;2022-12-13T09:54:37;34.50;;;15.23;;
549;SDS011;20066;48.764;9.176;2022-12-13T09:57:15;35.75;;;14.70;;
549;SDS011;20066;48.764;9.176;2022-12-13T09:59:59;40.08;;;16.50;;
549;SDS011;20066;48.764;9.176;2022-12-13T10:02:28;35.85;;;15.50;;
549;SDS011;20066;48.764;9.176;2022-12-13T10:05:07;39.00;;;15.90;;
549;SDS011;20066;48.764;9.176;2022-12-13T10:07:51;28.30;;;13.77;;
549;SDS011;20066;48.764;9.176;2022-12-13T10:10:20;41.88;;;14.77;;
549;SDS011;20066;48.764;9.176;2022-12-13T10:12:51;32.25;;;14.82;;
549;SDS011;20066;48.764;9.176;2022-12-13T10:15:24;31.90;;;14.00;;
549;SDS011;20066;48.764;9.176;2022-12-13T10:17:54;34.83;;;14.48;;
549;SDS011;20066;48.764;9.176;2022-12-13T10:20:23;33.35;;;14.52;;
549;SDS011;20066;48.764;9.176;2022-12-13T10:22:56;35.35;;;14.40;;
549;SDS011;20066;48.764;9.176;2022-12-13T10:25:45;33.20;;;14.70;;
549;SDS011;20066;48.764;9.176;2022-12-13T10:28:17;38.60;;;14.95;;
549;SDS011;20066;48.764;9.176;2022-12-13T10:30:50;31.13;;;13.68;;
549;SDS011;20066;48.764;9.176;2022-12-13T10:33:19;29.45;;;15.07;;
549;SDS011;20066;48.764;9.176;2022-12-13T10:36:02;33.95;;;15.27;;
549;SDS011;20066;48.764;9.176;2022-12-13T10:38:38;30.50;;;14.07;;
549;SDS011;20066;48.764;9.176;2022-12-13T10:46:51;33.75;;;15.23;;
549;SDS011;20066;48.764;9.176;2022-12-13T10:49:32;34.75;;;15.20;;
549;SDS011;20066;48.764;9.176;2022-12-13T10:52:06;31.95;;;14.38;;
549;SDS011;20066;48.764;9.176;2022-12-13T10:54:59;41.90;;;16.60;;
549;SDS011;20066;48.764;9.176;2022-12-13T10:57:49;34.78;;;15.73;;
549;SDS011;20066;48.764;9.176;2022-12-13T11:00:36;32.58;;;13.52;;
549;SDS011;20066;48.764;9.176;2022-12-13T11:03:06;35.25;;;14.98;;
549;SDS011;20066;48.764;9.176;2022-12-13T11:05:36;32.95;;;13.23;;
549;SDS011;20066;48.764;9.176;2022-12-13T11:08:13;28.75;;;13.40;;
549;SDS011;20066;48.764;9.176;2022-12-13T11:10:44;26.27;;;12.20;;
549;SDS011;20066;48.764;9.176;2022-12-13T11:13:20;30.05;;;14.65;;
549;SDS011;20066;48.764;9.176;2022-12-13T11:15:54;31.65;;;13.80;;
549;SDS011;20066;48.764;9.176;2022-12-13T11:18:23;27.77;;;12.70;;
549;SDS011;20066;48.764;9.176;2022-12-13T11:20:54;35.28;;;16.15;;
549;SDS011;20066;48.764;9.176;2022-12-13T11:23:25;35.72;;;12.68;;
549;SDS011;20066;48.764;9.176;2022-12-13T11:25:58;28.33;;;12.90;;
549;SDS011;20066;48.764;9.176;2022-12-13T11:28:33;25.33;;;12.18;;
549;SDS011;20066;48.764;9.176;2022-12-13T11:31:25;37.50;;;15.27;;
549;SDS011;20066;48.764;9.176;2022-12-13T11:34:02;33.85;;;13.55;;
549;SDS011;20066;48.764;9.176;2022-12-13T11:36:44;35.38;;;14.07;;
549;SDS011;20066;48.764;9.176;2022-12-13T11:39:25;35.88;;;14.27;;
549;SDS011;20066;48.764;9.176;2022-12-13T11:41:58;35.60;;;15.55;;
549;SDS011;20066;48.764;9.176;2022-12-13T11:44:35;28.95;;;12.70;;
549;SDS011;20066;48.764;9.176;2022-12-13T11:47:14;30.00;;;14.38;;
549;SDS011;20066;48.764;9.176;2022-12-13T11:49:46;36.75;;;14.10;;
549;SDS011;20066;48.764;9.176;2022-12-13T11:52:16;61.65;;;15.48;;
549;SDS011;20066;48.764;9.176;2022-12-13T11:54:49;33.35;;;14.00;;
549;SDS011;20066;48.764;9.176;2022-12-13T11:57:27;30.30;;;13.43;;
549;SDS011;20066;48.764;9.176;2022-12-13T12:00:04;32.53;;;14.20;;
549;SDS011;20066;48.764;9.176;2022-12-13T12:02:39;38.95;;;14.55;;
549;SDS011;20066;48.764;9.176;2022-12-13T12:05:15;31.00;;;13.93;;
549;SDS011;20066;48.764;9.176;2022-12-13T12:07:54;35.40;;;13.85;;
549;SDS011;20066;48.764;9.176;2022-12-13T12:10:45;32.25;;;13.07;;
549;SDS011;20066;48.764;9.176;2022-12-13T12:13:18;36.35;;;15.35;;
549;SDS011;20066;48.764;9.176;2022-12-13T12:15:50;30.95;;;13.55;;
549;SDS011;20066;48.764;9.176;2022-12-13T12:18:25;26.92;;;12.60;;
549;SDS011;20066;48.764;9.176;2022-12-13T12:21:00;32.63;;;13.00;;
549;SDS011;20066;48.764;9.176;2022-12-13T12:23:49;35.53;;;15.13;;
549;SDS011;20066;48.764;9.176;2022-12-13T12:26:29;39.75;;;15.52;;
549;SDS011;20066;48.764;9.176;2022-12-13T12:29:10;35.00;;;14.65;;
549;SDS011;20066;48.764;9.176;2022-12-13T12:31:51;40.28;;;14.30;;
549;SDS011;20066;48.764;9.176;2022-12-13T12:34:28;32.08;;;14.82;;
549;SDS011;20066;48.764;9.176;2022-12-13T12:37:09;31.48;;;14.63;;
549;SDS011;20066;48.764;9.176;2022-12-13T12:39:50;27.50;;;13.00;;
549;SDS011;20066;48.764;9.176;2022-12-13T12:42:32;50.00;;;14.25;;
549;SDS011;20066;48.764;9.176;2022-12-13T12:45:31;38.80;;;14.63;;
549;SDS011;20066;48.764;9.176;2022-12-13T12:48:33;33.65;;;13.60;;
549;SDS011;20066;48.764;9.176;2022-12-13T12:51:27;33.03;;;13.65;;
549;SDS011;20066;48.764;9.176;2022-12-13T12:54:07;36.35;;;14.43;;
549;SDS011;20066;48.764;9.176;2022-12-13T12:56:58;29.98;;;12.82;;
549;SDS011;20066;48.764;9.176;2022-12-13T12:59:34;41.53;;;14.82;;
549;SDS011;20066;48.764;9.176;2022-12-13T13:02:14;35.78;;;15.65;;
549;SDS011;20066;48.764;9.176;2022-12-13T13:04:47;40.17;;;15.52;;
549;SDS011;20066;48.764;9.176;2022-12-13T13:07:21;29.83;;;15.85;;
549;SDS011;20066;48.764;9.176;2022-12-13T13:09:53;38.78;;;14.85;;
549;SDS011;20066;48.764;9.176;2022-12-13T13:12:21;35.63;;;15.00;;
549;SDS011;20066;48.764;9.176;2022-12-13T13:14:55;44.10;;;15.20;;
549;SDS011;20066;48.764;9.176;2022-12-13T13:17:45;32.22;;;13.90;;
549;SDS011;20066;48.764;9.176;2022-12-13T13:20:23;31.58;;;16.33;;
549;SDS011;20066;48.764;9.176;2022-12-13T13:22:52;44.95;;;15.82;;
549;SDS011;20066;48.764;9.176;2022-12-13T13:25:41;36.47;;;14.68;;
549;SDS011;20066;48.764;9.176;2022-12-13T13:28:40;39.10;;;14.63;;
549;SDS011;20066;48.764;9.176;2022-12-13T13:31:07;41.13;;;15.70;;
549;SDS011;20066;48.764;9.176;2022-12-13T13:33:43;44.67;;;15.75;;
549;SDS011;20066;48.764;9.176;2022-12-13T13:39:14;33.97;;;14.88;;
549;SDS011;20066;48.764;9.176;2022-12-13T13:41:56;31.50;;;14.32;;
549;SDS011;20066;48.764;9.176;2022-12-13T13:47:33;24.60;;;11.35;;
549;SDS011;20066;48.764;9.176;2022-12-13T13:50:15;31.77;;;12.68;;
549;SDS011;20066;48.764;9.176;2022-12-13T13:56:33;41.00;;;14.85;;
549;SDS011;20066;48.764;9.176;2022-12-13T14:02:25;37.13;;;12.65;;
549;SDS011;20066;48.764;9.176;2022-12-13T14:05:48;25.60;;;11.93;;
549;SDS011;20066;48.764;9.176;2022-12-13T14:08:41;33.63;;;13.95;;
549;SDS011;20066;48.764;9.176;2022-12-13T14:11:40;26.80;;;12.10;;
549;SDS011;20066;48.764;9.176;2022-12-13T14:14:52;37.28;;;13.27;;
549;SDS011;20066;48.764;9.176;2022-12-13T14:20:57;36.28;;;12.70;;
549;SDS011;20066;48.764;9.176;2022-12-13T14:23:34;32.58;;;12.48;;
549;SDS011;20066;48.764;9.176;2022-12-13T14:26:18;34.45;;;13.40;;
549;SDS011;20066;48.764;9.176;2022-12-13T14:28:55;29.00;;;12.05;;
549;SDS011;20066;48.764;9.176;2022-12-13T14:31:28;28.60;;;12.07;;
549;SDS011;20066;48.764;9.176;2022-12-13T14:34:02;28.45;;;11.23;;
549;SDS011;20066;48.764;9.176;2022-12-13T14:36:34;35.55;;;13.45;;
549;SDS011;20066;48.764;9.176;2022-12-13T14:39:04;28.65;;;12.30;;
549;SDS011;20066;48.764;9.176;2022-12-13T14:41:51;29.90;;;11.40;;
549;SDS011;20066;48.764;9.176;2022-12-13T14:44:24;37.25;;;11.57;;
549;SDS011;20066;48.764;9.176;2022-12-13T14:46:53;28.58;;;11.65;;
549;SDS011;20066;48.764;9.176;2022-12-13T14:49:22;35.13;;;11.60;;
549;SDS011;20066;48.764;9.176;2022-12-13T14:51:55;37.75;;;12.55;;
549;SDS011;20066;48.764;9.176;2022-12-13T14:54:28;27.80;;;11.30;;
549;SDS011;20066;48.764;9.176;2022-12-13T14:57:03;42.03;;;13.18;;
549;SDS011;20066;48.764;9.176;2022-12-13T14:59:31;26.85;;;12.43;;
549;SDS011;20066;48.764;9.176;2022-12-13T15:02:00;25.55;;;12.30;;
549;SDS011;20066;48.764;9.176;2022-12-13T15:04:31;25.33;;;11.02;;
549;SDS011;20066;48.764;9.176;2022-12-13T15:07:03;26.83;;;11.27;;
549;SDS011;20066;48.764;9.176;2022-12-13T15:09:34;34.75;;;11.50;;
549;SDS011;20066;48.764;9.176;2022-12-13T15:12:08;26.77;;;12.38;;
549;SDS011;20066;48.764;9.176;2022-12-13T15:14:54;27.48;;;10.80;;
549;SDS011;20066;48.764;9.176;2022-12-13T15:17:29;25.02;;;10.80;;
549;SDS011;20066;48.764;9.176;2022-12-13T15:19:59;31.50;;;11.35;;
549;SDS011;20066;48.764;9.176;2022-12-13T15:22:28;27.35;;;12.60;;
549;SDS011;20066;48.764;9.176;2022-12-13T15:24:56;34.47;;;12.25;;
549;SDS011;20066;48.764;9.176;2022-12-13T15:27:25;26.73;;;11.50;;
549;SDS011;20066;48.764;9.176;2022-12-13T15:29:53;23.75;;;10.95;;
549;SDS011;20066;48.764;9.176;2022-12-13T15:32:21;29.38;;;10.30;;
549;SDS011;20066;48.764;9.176;2022-12-13T15:34:50;25.45;;;11.52;;
549;SDS011;20066;48.764;9.176;2022-12-13T15:37:23;22.33;;;11.13;;
549;SDS011;20066;48.764;9.176;2022-12-13T15:39:58;31.98;;;13.05;;
549;SDS011;20066;48.764;9.176;2022-12-13T15:42:28;41.10;;;14.65;;
549;SDS011;20066;48.764;9.176;2022-12-13T15:44:58;30.98;;;12.02;;
549;SDS011;20066;48.764;9.176;2022-12-13T15:47:28;28.00;;;13.18;;
549;SDS011;20066;48.764;9.176;2022-12-13T15:49:57;29.45;;;11.80;;